EDTY

Adolf Würth Airport

Schwäbisch Hall, Germany
METAR EDTY 161750Z 11004KT 090V150 CAVOK 24/12 Q1012
Observed Flight Rules
Jul-16 @ 17:50 UTC (4 hours ago) Visual Flight Rules
Wind Visibility Clouds
110° at 4 knots 10,000+ meters
  • Clear skies
Temperatures Readings
Current 24°C / 75°F
Dewpoint 12°C / 54°F
Humidity 47%
Altimeter 29.88" Hg
Pressure 1012 hPa
Elevation 400
METAR EDTY 161750Z 11004KT 090V150 CAVOK 24/12 Q1012
Observed Flight Rules
Jul-16 @ 17:50 UTC
(4 hours ago)
VFR
Wind Visibility
110° at 4 knots 10,000+ meters
Clouds
  • Clear skies
Temperature Dewpoint
24°C / 75°F 12°C / 54°F
Humidity Altimeter Pressure
47% 29.88" Hg 1012 hPa